createdAt,value
2023-05-05T00:01:53.152Z,99.90
2023-05-05T00:04:22.564Z,99.90
2023-05-05T00:06:52.353Z,99.90
2023-05-05T00:09:18.961Z,99.90
2023-05-05T00:11:45.751Z,99.90
2023-05-05T00:14:12.366Z,99.90
2023-05-05T00:16:39.005Z,99.90
2023-05-05T00:19:06.608Z,99.90
2023-05-05T00:21:33.201Z,99.90
2023-05-05T00:24:00.007Z,99.90
2023-05-05T00:26:26.719Z,99.90
2023-05-05T00:28:53.409Z,99.90
2023-05-05T00:31:19.980Z,99.90
2023-05-05T00:33:46.638Z,99.90
2023-05-05T00:36:14.626Z,99.90
2023-05-05T00:38:41.241Z,99.90
2023-05-05T00:41:07.961Z,99.90
2023-05-05T00:43:34.500Z,99.90
2023-05-05T00:46:19.116Z,99.90
2023-05-05T00:48:45.813Z,99.90
2023-05-05T00:51:14.152Z,99.90
2023-05-05T00:53:43.026Z,99.90
2023-05-05T00:56:09.677Z,99.90
2023-05-05T00:58:36.926Z,99.90
2023-05-05T01:01:03.568Z,99.90
2023-05-05T01:03:30.319Z,99.90
2023-05-05T01:06:15.251Z,99.90
2023-05-05T01:09:06.422Z,99.90
2023-05-05T01:11:46.041Z,99.90
2023-05-05T01:14:17.016Z,99.90
2023-05-05T01:17:00.164Z,99.90
2023-05-05T01:19:59.040Z,99.90
2023-05-05T01:22:33.204Z,99.90
2023-05-05T01:25:34.015Z,99.90
2023-05-05T01:28:35.717Z,99.90
2023-05-05T01:31:17.770Z,99.90
2023-05-05T01:33:49.459Z,99.90
2023-05-05T01:36:23.349Z,99.90
2023-05-05T01:38:59.053Z,99.90
2023-05-05T01:41:31.938Z,99.90
2023-05-05T01:44:01.115Z,99.90
2023-05-05T01:46:28.226Z,99.90
2023-05-05T01:48:57.015Z,99.90
2023-05-05T01:51:25.092Z,99.90
2023-05-05T01:53:59.048Z,99.90
2023-05-05T01:56:27.437Z,99.90
2023-05-05T01:58:55.837Z,99.90
2023-05-05T02:01:27.738Z,99.90
2023-05-05T02:03:58.738Z,99.90
2023-05-05T02:06:28.687Z,99.90
2023-05-05T02:08:58.312Z,99.90
2023-05-05T02:11:26.690Z,99.90
2023-05-05T02:13:55.515Z,99.90
2023-05-05T02:16:23.421Z,99.90
2023-05-05T02:18:58.393Z,99.90
2023-05-05T02:21:25.151Z,99.90
2023-05-05T02:23:52.790Z,99.90
2023-05-05T02:26:22.926Z,99.90
2023-05-05T02:28:54.773Z,99.90
2023-05-05T02:31:24.314Z,99.90
2023-05-05T02:33:52.164Z,99.90
2023-05-05T02:36:22.083Z,99.90
2023-05-05T02:38:54.323Z,99.90
2023-05-05T02:41:22.543Z,99.90
2023-05-05T02:43:51.014Z,99.90
2023-05-05T02:46:17.942Z,99.90
2023-05-05T02:48:45.887Z,99.90
2023-05-05T02:51:12.632Z,99.90
2023-05-05T02:53:39.747Z,99.90
2023-05-05T02:56:48.736Z,99.90
2023-05-05T02:59:30.038Z,99.90
2023-05-05T03:02:14.513Z,99.90
2023-05-05T03:04:52.284Z,99.90
2023-05-05T03:07:47.136Z,99.90
2023-05-05T03:10:18.354Z,99.90
2023-05-05T03:12:58.448Z,99.90
2023-05-05T03:15:46.483Z,99.90
2023-05-05T03:18:15.534Z,99.90
2023-05-05T03:20:42.780Z,99.90
2023-05-05T03:23:10.075Z,99.90
2023-05-05T03:25:47.319Z,99.90
2023-05-05T03:28:14.914Z,99.90
2023-05-05T03:30:42.223Z,99.90
2023-05-05T03:33:11.237Z,99.90
2023-05-05T03:35:38.035Z,99.90
2023-05-05T03:38:04.649Z,99.90
2023-05-05T03:40:43.085Z,99.90
2023-05-05T03:43:10.606Z,99.90
2023-05-05T03:45:37.540Z,99.90
2023-05-05T03:48:04.646Z,99.90
2023-05-05T03:50:31.299Z,99.90
2023-05-05T03:52:57.982Z,99.90
2023-05-05T03:55:24.789Z,99.90
2023-05-05T03:57:51.443Z,99.90
2023-05-05T04:00:18.514Z,99.90
2023-05-05T04:02:45.484Z,99.90
2023-05-05T04:05:12.213Z,99.90
2023-05-05T04:07:38.860Z,99.90
2023-05-05T04:10:06.763Z,99.90
2023-05-05T04:12:33.696Z,99.90
2023-05-05T04:15:01.002Z,99.90
2023-05-05T04:17:27.634Z,99.90
2023-05-05T04:19:54.217Z,99.90
2023-05-05T04:22:20.959Z,99.90
2023-05-05T04:24:47.665Z,99.90
2023-05-05T04:27:14.248Z,99.90
2023-05-05T04:29:43.382Z,99.90
2023-05-05T04:32:09.962Z,99.90
2023-05-05T04:34:36.960Z,99.90
2023-05-05T04:37:03.622Z,99.90
2023-05-05T04:39:30.368Z,99.90
2023-05-05T04:41:57.342Z,99.90
2023-05-05T04:44:23.994Z,99.90
2023-05-05T04:46:50.723Z,99.90
2023-05-05T04:49:17.426Z,99.90
2023-05-05T04:51:44.049Z,99.90
2023-05-05T04:54:10.755Z,99.90
2023-05-05T04:56:37.501Z,99.90
2023-05-05T04:59:04.088Z,99.90
2023-05-05T05:01:31.671Z,99.90
2023-05-05T05:03:58.708Z,99.90
2023-05-05T05:06:25.759Z,99.90
2023-05-05T05:08:53.360Z,99.90
2023-05-05T05:11:20.194Z,99.90
2023-05-05T05:13:47.025Z,99.90
2023-05-05T05:16:14.031Z,99.90
2023-05-05T05:18:40.967Z,99.90
2023-05-05T05:21:08.039Z,99.90
2023-05-05T05:23:34.764Z,99.90
2023-05-05T05:26:01.539Z,99.90
2023-05-05T05:28:28.403Z,99.90
2023-05-05T05:30:55.112Z,99.90
2023-05-05T05:33:21.821Z,99.90
2023-05-05T05:35:48.433Z,99.90
2023-05-05T05:38:15.115Z,99.90
2023-05-05T05:40:42.087Z,99.90
2023-05-05T05:43:08.723Z,99.90
2023-05-05T05:45:35.530Z,99.90
2023-05-05T05:48:02.221Z,99.90
2023-05-05T05:50:28.924Z,99.90
2023-05-05T05:52:55.823Z,99.90
2023-05-05T05:55:22.451Z,99.90
2023-05-05T05:57:49.073Z,99.90
2023-05-05T06:00:16.016Z,99.90
2023-05-05T06:02:42.829Z,99.90
2023-05-05T06:05:10.326Z,99.90
2023-05-05T06:07:36.948Z,99.90
2023-05-05T06:10:18.408Z,99.90
2023-05-05T06:12:45.575Z,99.90
2023-05-05T06:15:12.125Z,99.90
2023-05-05T06:17:38.969Z,99.90
2023-05-05T06:20:06.479Z,99.90
2023-05-05T06:22:33.353Z,99.90
2023-05-05T06:24:59.956Z,99.90
2023-05-05T06:27:26.535Z,99.90
2023-05-05T06:29:53.100Z,99.90
2023-05-05T06:32:20.334Z,99.90
2023-05-05T06:34:48.193Z,99.90
2023-05-05T06:37:14.956Z,99.90
2023-05-05T06:39:41.674Z,99.90
2023-05-05T06:42:08.284Z,99.90
2023-05-05T06:44:36.338Z,99.90
2023-05-05T06:47:03.783Z,99.90
2023-05-05T06:49:30.477Z,99.90
2023-05-05T06:51:57.083Z,99.90
2023-05-05T06:54:23.692Z,99.90
2023-05-05T06:56:50.552Z,99.90
2023-05-05T06:59:17.225Z,99.90
2023-05-05T07:01:43.791Z,99.90
2023-05-05T07:04:11.232Z,99.90
2023-05-05T07:06:37.948Z,99.90
2023-05-05T07:09:04.549Z,99.90
2023-05-05T07:11:31.178Z,99.90
2023-05-05T07:13:57.768Z,99.90
2023-05-05T07:16:27.053Z,99.90
2023-05-05T07:18:53.830Z,99.90
2023-05-05T07:21:20.495Z,99.90
2023-05-05T07:23:47.747Z,99.90
2023-05-05T07:26:15.177Z,99.90
2023-05-05T07:28:43.030Z,99.90
2023-05-05T07:31:09.776Z,99.90
2023-05-05T07:33:39.192Z,99.90
2023-05-05T07:36:06.116Z,99.90
2023-05-05T07:38:32.896Z,99.90
2023-05-05T07:40:59.525Z,99.90
2023-05-05T07:43:26.346Z,99.90
2023-05-05T07:45:53.000Z,99.90
2023-05-05T07:48:19.622Z,99.90
2023-05-05T07:50:46.202Z,99.90
2023-05-05T07:53:14.952Z,99.90
2023-05-05T07:55:42.247Z,99.90
2023-05-05T07:58:12.036Z,99.90
2023-05-05T08:00:39.365Z,99.90
2023-05-05T08:03:07.199Z,99.90
2023-05-05T08:05:35.906Z,99.90
2023-05-05T08:08:03.633Z,99.90
2023-05-05T08:10:30.502Z,99.90
2023-05-05T08:12:57.228Z,99.90
2023-05-05T08:15:23.880Z,99.90
2023-05-05T08:17:53.129Z,99.90
2023-05-05T08:20:20.993Z,99.90
2023-05-05T08:22:48.000Z,99.90
2023-05-05T08:25:17.329Z,99.90
2023-05-05T08:27:44.729Z,99.90
2023-05-05T08:30:11.864Z,99.90
2023-05-05T08:32:38.830Z,99.90
2023-05-05T08:35:06.574Z,99.90
2023-05-05T08:37:33.597Z,99.90
2023-05-05T08:40:00.405Z,99.90
2023-05-05T08:42:37.194Z,99.90
2023-05-05T08:45:04.771Z,99.90
2023-05-05T08:47:32.267Z,99.90
2023-05-05T08:50:00.167Z,99.90
2023-05-05T08:52:32.625Z,99.90
2023-05-05T08:55:24.013Z,99.90
2023-05-05T08:57:57.027Z,99.90
2023-05-05T09:00:24.520Z,99.90
2023-05-05T09:02:52.424Z,99.90
2023-05-05T09:05:19.161Z,99.90
2023-05-05T09:07:47.120Z,99.90
2023-05-05T09:10:13.840Z,99.90
2023-05-05T09:12:41.146Z,99.90
2023-05-05T09:15:12.561Z,99.90
2023-05-05T09:17:40.070Z,99.90
2023-05-05T09:20:11.799Z,99.90
2023-05-05T09:22:43.335Z,99.90
2023-05-05T09:25:14.454Z,99.90
2023-05-05T09:27:46.540Z,99.90
2023-05-05T09:30:23.106Z,99.90
2023-05-05T09:32:54.587Z,99.90
2023-05-05T09:35:22.764Z,99.90
2023-05-05T09:37:49.662Z,99.90
2023-05-05T09:40:18.898Z,99.90
2023-05-05T09:42:46.134Z,99.90
2023-05-05T09:45:18.987Z,99.90
2023-05-05T09:47:47.062Z,99.90
2023-05-05T09:50:16.017Z,99.90
2023-05-05T09:52:43.308Z,99.90
2023-05-05T09:55:19.056Z,99.90
2023-05-05T09:57:47.368Z,99.90
2023-05-05T10:00:14.527Z,99.90
2023-05-05T10:02:43.987Z,99.90
2023-05-05T10:05:18.620Z,99.90
2023-05-05T10:07:47.818Z,99.90
2023-05-05T10:10:16.986Z,99.90
2023-05-05T10:12:45.863Z,99.90
2023-05-05T10:15:15.088Z,99.90
2023-05-05T10:20:19.141Z,99.40
2023-05-05T10:22:54.496Z,99.90
2023-05-05T10:25:34.567Z,99.60
2023-05-05T10:28:04.222Z,97.80
2023-05-05T10:30:34.656Z,97.30
2023-05-05T10:33:30.088Z,98.30
2023-05-05T10:36:05.190Z,98.60
2023-05-05T10:38:32.608Z,99.80
2023-05-05T10:41:01.073Z,98.40
2023-05-05T10:43:31.946Z,95.40
2023-05-05T10:45:59.601Z,96.70
2023-05-05T10:49:13.539Z,94.60
2023-05-05T10:52:17.378Z,94.50
2023-05-05T10:54:49.472Z,92.60
2023-05-05T10:57:21.623Z,92.30
2023-05-05T10:59:48.179Z,92.70
2023-05-05T11:02:19.573Z,91.40
2023-05-05T11:05:14.975Z,90.00
2023-05-05T11:07:42.786Z,91.10
2023-05-05T11:10:12.000Z,89.10
2023-05-05T11:13:02.383Z,81.60
2023-05-05T11:15:29.218Z,78.20
2023-05-05T11:18:03.297Z,80.20
2023-05-05T11:20:39.588Z,82.20
2023-05-05T11:23:06.865Z,84.20
2023-05-05T11:25:44.474Z,86.10
2023-05-05T11:28:16.779Z,87.50
2023-05-05T11:30:57.864Z,86.50
2023-05-05T11:33:39.028Z,88.00
2023-05-05T11:36:10.168Z,87.60
2023-05-05T11:38:55.737Z,85.80
2023-05-05T11:41:34.381Z,86.70
2023-05-05T11:44:17.119Z,86.00
2023-05-05T11:47:07.058Z,79.70
2023-05-05T11:49:35.816Z,79.40
2023-05-05T11:52:05.426Z,80.80
2023-05-05T11:54:35.889Z,74.70
2023-05-05T11:57:08.214Z,73.10
2023-05-05T11:59:37.484Z,76.40
2023-05-05T12:02:04.678Z,76.90
2023-05-05T12:04:31.788Z,77.70
2023-05-05T12:07:01.643Z,77.20
2023-05-05T12:09:28.436Z,75.80
2023-05-05T12:11:56.416Z,70.80
2023-05-05T12:14:24.540Z,71.00
2023-05-05T12:17:09.715Z,68.30
2023-05-05T12:19:36.550Z,62.90
2023-05-05T12:22:05.114Z,63.30
2023-05-05T12:24:31.798Z,64.20
2023-05-05T12:27:08.696Z,64.70
2023-05-05T12:29:35.370Z,62.90
2023-05-05T12:32:02.143Z,61.00
2023-05-05T12:34:29.002Z,58.10
2023-05-05T12:36:58.858Z,61.20
2023-05-05T12:39:37.513Z,60.60
2023-05-05T12:42:04.887Z,60.70
2023-05-05T12:44:36.173Z,57.90
2023-05-05T12:47:02.908Z,59.20
2023-05-05T12:49:29.806Z,56.30
2023-05-05T12:51:57.184Z,55.20
2023-05-05T12:54:24.964Z,54.60
2023-05-05T12:56:51.632Z,55.90
2023-05-05T12:59:20.978Z,56.90
2023-05-05T13:01:59.315Z,56.00
2023-05-05T13:04:29.369Z,56.50
2023-05-05T13:07:13.460Z,57.70
2023-05-05T13:09:40.600Z,58.70
2023-05-05T13:12:16.932Z,58.80
2023-05-05T13:14:44.121Z,57.60
2023-05-05T13:17:12.006Z,57.00
2023-05-05T13:19:47.991Z,55.40
2023-05-05T13:22:15.391Z,55.80
2023-05-05T13:24:50.840Z,58.10
2023-05-05T13:27:19.749Z,56.10
2023-05-05T13:29:46.647Z,55.70
2023-05-05T13:32:13.313Z,56.90
2023-05-05T13:34:40.055Z,58.80
2023-05-05T13:37:06.785Z,56.10
2023-05-05T13:39:33.685Z,57.80
2023-05-05T13:42:00.370Z,54.50
2023-05-05T13:44:27.025Z,55.60
2023-05-05T13:46:53.957Z,55.10
2023-05-05T13:49:21.089Z,55.20
2023-05-05T13:51:47.806Z,55.20
2023-05-05T13:54:14.475Z,56.10
2023-05-05T13:56:44.049Z,57.30
2023-05-05T13:59:10.704Z,54.40
2023-05-05T14:01:37.722Z,54.70
2023-05-05T14:04:05.721Z,53.10
2023-05-05T14:06:33.470Z,53.10
2023-05-05T14:09:00.082Z,53.10
2023-05-05T14:11:26.794Z,54.60
2023-05-05T14:13:53.510Z,54.50
2023-05-05T14:16:20.233Z,53.40
2023-05-05T14:18:46.961Z,52.60
2023-05-05T14:21:16.756Z,52.50
2023-05-05T14:23:43.342Z,53.00
2023-05-05T14:26:10.133Z,52.80
2023-05-05T14:28:36.713Z,52.80
2023-05-05T14:31:03.492Z,53.90
2023-05-05T14:33:33.114Z,54.00
2023-05-05T14:35:59.965Z,53.90
2023-05-05T14:38:26.556Z,53.50
2023-05-05T14:40:53.273Z,52.70
2023-05-05T14:43:20.751Z,50.60
2023-05-05T14:45:47.410Z,51.10
2023-05-05T14:48:14.061Z,52.20
2023-05-05T14:50:42.372Z,54.20
2023-05-05T14:53:08.981Z,53.20
2023-05-05T14:55:35.771Z,53.90
2023-05-05T14:58:02.314Z,54.40
2023-05-05T15:00:28.998Z,54.90
2023-05-05T15:02:55.688Z,55.10
2023-05-05T15:05:22.332Z,56.00
2023-05-05T15:07:48.989Z,57.50
2023-05-05T15:10:15.736Z,57.90
2023-05-05T15:12:43.041Z,58.80
2023-05-05T15:15:10.205Z,59.40
2023-05-05T15:17:38.632Z,59.70
2023-05-05T15:20:06.895Z,60.80
2023-05-05T15:22:33.709Z,61.20
2023-05-05T15:25:00.371Z,62.60
2023-05-05T15:27:27.147Z,64.20
2023-05-05T15:29:54.372Z,64.30
2023-05-05T15:32:21.210Z,64.50
2023-05-05T15:34:50.233Z,67.90
2023-05-05T15:37:17.195Z,68.40
2023-05-05T15:39:44.060Z,68.20
2023-05-05T15:42:11.041Z,65.20
2023-05-05T15:44:37.750Z,60.60
2023-05-05T15:47:04.957Z,69.20
2023-05-05T15:49:31.740Z,77.90
2023-05-05T15:51:58.771Z,83.70
2023-05-05T15:54:26.505Z,88.80
2023-05-05T15:56:53.228Z,91.10
2023-05-05T15:59:19.898Z,93.00
2023-05-05T16:01:47.166Z,95.40
2023-05-05T16:04:13.977Z,96.70
2023-05-05T16:06:40.756Z,98.60
2023-05-05T16:09:07.416Z,99.40
2023-05-05T16:11:34.162Z,99.90
2023-05-05T16:14:00.989Z,99.90
2023-05-05T16:16:27.603Z,99.90
2023-05-05T16:18:54.469Z,99.90
2023-05-05T16:21:21.205Z,99.90
2023-05-05T16:23:47.859Z,99.90
2023-05-05T16:26:14.448Z,99.90
2023-05-05T16:28:41.090Z,99.90
2023-05-05T16:31:10.473Z,99.90
2023-05-05T16:33:40.768Z,99.90
2023-05-05T16:36:13.958Z,99.90
2023-05-05T16:38:41.279Z,99.90
2023-05-05T16:41:08.126Z,99.90
2023-05-05T16:43:37.004Z,99.90
2023-05-05T16:46:03.998Z,99.90
2023-05-05T16:48:30.743Z,99.90
2023-05-05T16:50:58.000Z,99.90
2023-05-05T16:53:25.321Z,99.90
2023-05-05T16:55:53.276Z,99.90
2023-05-05T16:58:21.203Z,99.90
2023-05-05T17:00:49.140Z,99.90
2023-05-05T17:03:16.945Z,99.90
2023-05-05T17:05:45.287Z,99.90
2023-05-05T17:08:14.313Z,99.90
2023-05-05T17:10:41.815Z,99.90
2023-05-05T17:13:12.842Z,99.90
2023-05-05T17:15:40.447Z,99.90
2023-05-05T17:18:08.221Z,99.90
2023-05-05T17:20:36.186Z,99.90
2023-05-05T17:23:03.204Z,99.90
2023-05-05T17:25:29.836Z,99.90
2023-05-05T17:27:57.594Z,99.90
2023-05-05T17:30:24.462Z,99.90
2023-05-05T17:32:51.231Z,99.90
2023-05-05T17:35:17.941Z,99.90
2023-05-05T17:37:45.052Z,99.90
2023-05-05T17:40:15.318Z,99.90
2023-05-05T17:42:41.931Z,99.90
2023-05-05T17:45:09.498Z,99.90
2023-05-05T17:47:36.415Z,99.90
2023-05-05T17:50:03.507Z,99.90
2023-05-05T17:52:30.252Z,99.90
2023-05-05T17:54:57.096Z,99.90
2023-05-05T17:57:23.947Z,99.90
2023-05-05T17:59:51.843Z,99.90
2023-05-05T18:02:19.573Z,99.90
2023-05-05T18:04:46.481Z,99.90
2023-05-05T18:07:28.351Z,99.90
2023-05-05T18:09:55.146Z,99.90
2023-05-05T18:12:23.782Z,99.90
2023-05-05T18:14:50.562Z,99.90
2023-05-05T18:17:17.310Z,99.90
2023-05-05T18:19:46.650Z,99.90
2023-05-05T18:22:15.195Z,99.90
2023-05-05T18:24:42.780Z,99.90
2023-05-05T18:27:09.508Z,99.90
2023-05-05T18:29:36.412Z,99.90
2023-05-05T18:32:05.077Z,99.90
2023-05-05T18:34:33.084Z,99.90
2023-05-05T18:37:02.739Z,99.90
2023-05-05T18:39:30.263Z,99.90
2023-05-05T18:41:57.134Z,99.90
2023-05-05T18:44:23.884Z,99.90
2023-05-05T18:46:51.750Z,99.90
2023-05-05T18:49:18.393Z,99.90
2023-05-05T18:51:45.153Z,99.90
2023-05-05T18:54:11.854Z,99.90
2023-05-05T18:56:38.554Z,99.90
2023-05-05T18:59:05.370Z,99.90
2023-05-05T19:01:33.471Z,99.90
2023-05-05T19:04:01.293Z,99.90
2023-05-05T19:06:30.352Z,99.90
2023-05-05T19:09:01.517Z,99.90
2023-05-05T19:11:29.381Z,99.90
2023-05-05T19:13:56.273Z,99.90
2023-05-05T19:16:23.259Z,99.90
2023-05-05T19:18:49.878Z,99.90
2023-05-05T19:21:16.670Z,99.90
2023-05-05T19:23:45.748Z,99.90
2023-05-05T19:26:12.764Z,99.90
2023-05-05T19:28:45.165Z,99.90
2023-05-05T19:31:11.871Z,99.90
2023-05-05T19:33:42.207Z,99.90
2023-05-05T19:36:08.953Z,99.90
2023-05-05T19:38:36.493Z,99.90
2023-05-05T19:41:03.307Z,99.90
2023-05-05T19:43:29.962Z,99.90
2023-05-05T19:45:56.632Z,99.90
2023-05-05T19:48:23.394Z,99.90
2023-05-05T19:50:50.909Z,99.90
2023-05-05T19:53:20.716Z,99.90
2023-05-05T19:55:47.955Z,99.90
2023-05-05T19:58:14.786Z,99.90
2023-05-05T20:00:41.701Z,99.90
2023-05-05T20:03:08.965Z,99.90
2023-05-05T20:05:36.833Z,99.90
2023-05-05T20:08:06.138Z,99.90
2023-05-05T20:10:33.105Z,99.90
2023-05-05T20:12:59.883Z,99.90
2023-05-05T20:15:27.742Z,99.90
2023-05-05T20:17:55.140Z,99.90
2023-05-05T20:20:22.541Z,99.90
2023-05-05T20:22:49.596Z,99.90
2023-05-05T20:25:16.750Z,99.90
2023-05-05T20:27:44.044Z,99.90
2023-05-05T20:30:12.030Z,99.90
2023-05-05T20:32:39.067Z,99.90
2023-05-05T20:35:06.239Z,99.90
2023-05-05T20:37:33.108Z,99.90
2023-05-05T20:39:59.842Z,99.90
2023-05-05T20:42:27.516Z,99.90
2023-05-05T20:44:54.160Z,99.90
2023-05-05T20:47:20.983Z,99.90
2023-05-05T20:49:47.639Z,99.90
2023-05-05T20:52:14.336Z,99.90
2023-05-05T20:54:41.123Z,99.90
2023-05-05T20:57:07.687Z,99.90
2023-05-05T20:59:34.427Z,99.90
2023-05-05T21:02:01.078Z,99.90
2023-05-05T21:04:27.849Z,99.90
2023-05-05T21:06:54.579Z,99.90
2023-05-05T21:09:23.956Z,99.90
2023-05-05T21:11:50.674Z,99.90
2023-05-05T21:14:17.337Z,99.90
2023-05-05T21:16:43.950Z,99.90
2023-05-05T21:19:10.644Z,99.90
2023-05-05T21:21:37.217Z,99.90
2023-05-05T21:24:05.514Z,99.90
2023-05-05T21:26:33.752Z,99.90
2023-05-05T21:29:00.325Z,99.90
2023-05-05T21:31:26.942Z,99.90
2023-05-05T21:33:54.191Z,99.90
2023-05-05T21:36:21.244Z,99.90
2023-05-05T21:38:47.903Z,99.90
2023-05-05T21:41:14.564Z,99.90
2023-05-05T21:43:41.249Z,99.90
2023-05-05T21:46:08.449Z,99.90
2023-05-05T21:48:35.286Z,99.90
2023-05-05T21:51:02.021Z,99.90
2023-05-05T21:53:32.106Z,99.90
2023-05-05T21:55:58.926Z,99.90
2023-05-05T21:58:25.479Z,99.90
2023-05-05T22:00:52.540Z,99.90
2023-05-05T22:03:19.280Z,99.90
2023-05-05T22:05:46.080Z,99.90
2023-05-05T22:08:12.722Z,99.90
2023-05-05T22:10:39.524Z,99.90
2023-05-05T22:13:06.416Z,99.90
2023-05-05T22:15:45.382Z,99.90
2023-05-05T22:18:13.617Z,99.90
2023-05-05T22:20:40.600Z,99.90
2023-05-05T22:23:07.372Z,99.90
2023-05-05T22:25:34.028Z,99.90
2023-05-05T22:28:00.735Z,99.90
2023-05-05T22:30:27.348Z,99.90
2023-05-05T22:32:54.870Z,99.90
2023-05-05T22:35:21.510Z,99.90
2023-05-05T22:37:48.108Z,99.90
2023-05-05T22:40:14.778Z,99.90
2023-05-05T22:42:41.309Z,99.90
2023-05-05T22:45:09.652Z,99.90
2023-05-05T22:47:36.579Z,99.90
2023-05-05T22:50:03.403Z,99.90
2023-05-05T22:52:30.111Z,99.90
2023-05-05T22:54:56.706Z,99.90
2023-05-05T22:57:23.468Z,99.90
2023-05-05T22:59:50.516Z,99.90
2023-05-05T23:02:17.068Z,99.90
2023-05-05T23:04:44.818Z,99.90
2023-05-05T23:07:12.489Z,99.90
2023-05-05T23:09:39.240Z,99.90
2023-05-05T23:12:06.035Z,99.90
2023-05-05T23:14:32.690Z,99.90
2023-05-05T23:16:59.570Z,99.90
2023-05-05T23:19:26.465Z,99.90
2023-05-05T23:21:53.776Z,99.90
2023-05-05T23:24:21.393Z,99.90
2023-05-05T23:26:48.070Z,99.90
2023-05-05T23:29:15.014Z,99.90
2023-05-05T23:31:41.593Z,99.90
2023-05-05T23:34:11.066Z,99.90
2023-05-05T23:36:37.754Z,99.90
2023-05-05T23:39:04.647Z,99.90
2023-05-05T23:41:31.328Z,99.90
2023-05-05T23:43:58.004Z,99.90
2023-05-05T23:46:24.770Z,99.90
2023-05-05T23:48:51.368Z,99.90
2023-05-05T23:51:18.069Z,99.90
2023-05-05T23:53:44.621Z,99.90
2023-05-05T23:56:11.712Z,99.90
2023-05-05T23:58:38.458Z,99.90
